createdAt,value
2023-05-16T00:02:16.110Z,11.19
2023-05-16T00:04:43.711Z,10.95
2023-05-16T00:07:12.620Z,11.05
2023-05-16T00:09:40.122Z,11.03
2023-05-16T00:12:08.644Z,11.02
2023-05-16T00:14:36.475Z,11.13
2023-05-16T00:17:11.506Z,11.18
2023-05-16T00:19:40.150Z,11.16
2023-05-16T00:22:07.682Z,11.00
2023-05-16T00:24:36.481Z,10.82
2023-05-16T00:27:04.598Z,10.77
2023-05-16T00:29:32.398Z,10.84
2023-05-16T00:31:59.980Z,10.74
2023-05-16T00:34:27.676Z,10.65
2023-05-16T00:36:55.203Z,10.47
2023-05-16T00:39:22.823Z,10.40
2023-05-16T00:41:52.034Z,10.39
2023-05-16T00:44:19.661Z,10.49
2023-05-16T00:46:47.439Z,10.56
2023-05-16T00:49:15.280Z,10.79
2023-05-16T00:51:42.791Z,10.78
2023-05-16T00:54:10.332Z,10.61
2023-05-16T00:56:37.825Z,10.63
2023-05-16T00:59:06.709Z,10.46
2023-05-16T01:01:34.764Z,10.28
2023-05-16T01:04:02.358Z,10.20
2023-05-16T01:06:30.084Z,10.13
2023-05-16T01:08:58.825Z,10.06
2023-05-16T01:11:30.501Z,9.99
2023-05-16T01:14:10.948Z,9.93
2023-05-16T01:16:42.056Z,9.94
2023-05-16T01:19:16.268Z,10.00
2023-05-16T01:21:51.193Z,9.93
2023-05-16T01:24:25.204Z,9.87
2023-05-16T01:26:55.324Z,9.88
2023-05-16T01:29:22.915Z,9.89
2023-05-16T01:31:50.608Z,9.86
2023-05-16T01:34:19.446Z,9.92
2023-05-16T01:36:51.944Z,10.01
2023-05-16T01:39:23.347Z,9.99
2023-05-16T01:41:56.760Z,10.16
2023-05-16T01:44:27.137Z,10.33
2023-05-16T01:46:59.247Z,10.26
2023-05-16T01:49:32.381Z,10.21
2023-05-16T01:52:03.006Z,10.18
2023-05-16T01:54:33.078Z,9.86
2023-05-16T01:57:05.423Z,9.79
2023-05-16T01:59:33.204Z,9.62
2023-05-16T02:02:00.775Z,9.87
2023-05-16T02:04:28.507Z,9.82
2023-05-16T02:06:56.054Z,9.75
2023-05-16T02:09:23.604Z,9.69
2023-05-16T02:11:51.098Z,9.65
2023-05-16T02:14:19.971Z,9.91
2023-05-16T02:16:49.133Z,9.91
2023-05-16T02:19:18.311Z,9.86
2023-05-16T02:21:45.899Z,9.93
2023-05-16T02:24:13.403Z,9.80
2023-05-16T02:26:41.037Z,9.80
2023-05-16T02:29:08.672Z,9.44
2023-05-16T02:31:37.591Z,9.48
2023-05-16T02:34:05.237Z,9.67
2023-05-16T02:36:34.358Z,9.74
2023-05-16T02:39:01.906Z,9.65
2023-05-16T02:41:29.406Z,9.68
2023-05-16T02:43:56.897Z,9.65
2023-05-16T02:46:27.350Z,9.68
2023-05-16T02:48:56.238Z,9.50
2023-05-16T02:51:25.678Z,9.66
2023-05-16T02:53:53.995Z,9.60
2023-05-16T02:56:21.734Z,9.53
2023-05-16T02:58:50.753Z,9.45
2023-05-16T03:01:18.984Z,9.39
2023-05-16T03:03:46.735Z,9.17
2023-05-16T03:06:16.224Z,9.10
2023-05-16T03:08:43.767Z,8.93
2023-05-16T03:11:11.338Z,8.74
2023-05-16T03:13:38.864Z,8.83
2023-05-16T03:16:07.308Z,8.94
2023-05-16T03:18:36.675Z,8.89
2023-05-16T03:21:04.232Z,8.98
2023-05-16T03:23:33.057Z,9.02
2023-05-16T03:26:00.941Z,9.07
2023-05-16T03:28:28.468Z,9.07
2023-05-16T03:30:55.980Z,9.11
2023-05-16T03:33:24.621Z,9.07
2023-05-16T03:35:53.032Z,9.14
2023-05-16T03:38:21.535Z,9.11
2023-05-16T03:40:51.225Z,9.23
2023-05-16T03:43:18.745Z,9.22
2023-05-16T03:45:46.302Z,9.31
2023-05-16T03:48:13.876Z,9.35
2023-05-16T03:50:42.023Z,9.34
2023-05-16T03:53:09.867Z,9.42
2023-05-16T03:55:37.367Z,9.40
2023-05-16T03:58:06.282Z,9.31
2023-05-16T04:00:34.535Z,9.29
2023-05-16T04:03:02.081Z,9.31
2023-05-16T04:05:30.379Z,9.35
2023-05-16T04:07:58.068Z,9.22
2023-05-16T04:10:25.795Z,9.31
2023-05-16T04:12:53.330Z,9.36
2023-05-16T04:15:22.216Z,9.48
2023-05-16T04:17:49.751Z,9.68
2023-05-16T04:20:17.511Z,9.68
2023-05-16T04:22:44.996Z,9.85
2023-05-16T04:25:12.469Z,9.76
2023-05-16T04:27:39.966Z,9.69
2023-05-16T04:30:08.634Z,9.67
2023-05-16T04:32:37.586Z,9.80
2023-05-16T04:35:05.557Z,9.87
2023-05-16T04:37:33.078Z,9.89
2023-05-16T04:40:00.576Z,9.80
2023-05-16T04:42:28.100Z,9.65
2023-05-16T04:44:56.259Z,9.75
2023-05-16T04:47:23.771Z,9.71
2023-05-16T04:49:52.591Z,9.86
2023-05-16T04:52:20.201Z,9.68
2023-05-16T04:54:47.691Z,9.81
2023-05-16T04:57:15.181Z,9.83
2023-05-16T04:59:42.799Z,9.78
2023-05-16T05:02:10.386Z,9.81
2023-05-16T05:04:38.061Z,9.76
2023-05-16T05:07:08.138Z,9.68
2023-05-16T05:09:35.764Z,9.78
2023-05-16T05:12:03.311Z,9.89
2023-05-16T05:14:31.074Z,10.03
2023-05-16T05:16:58.579Z,10.13
2023-05-16T05:19:26.255Z,10.12
2023-05-16T05:21:53.800Z,10.30
2023-05-16T05:24:22.593Z,10.39
2023-05-16T05:26:50.116Z,10.35
2023-05-16T05:29:17.592Z,10.48
2023-05-16T05:31:45.207Z,10.48
2023-05-16T05:34:12.736Z,10.53
2023-05-16T05:36:40.404Z,10.57
2023-05-16T05:39:08.557Z,10.55
2023-05-16T05:41:37.673Z,10.77
2023-05-16T05:44:05.746Z,10.93
2023-05-16T05:46:33.825Z,10.88
2023-05-16T05:49:01.478Z,11.06
2023-05-16T05:51:29.019Z,11.17
2023-05-16T05:53:56.830Z,11.31
2023-05-16T05:56:24.778Z,11.43
2023-05-16T05:58:53.623Z,11.61
2023-05-16T06:01:22.303Z,11.74
2023-05-16T06:03:50.015Z,11.86
2023-05-16T06:06:19.114Z,11.89
2023-05-16T06:08:46.623Z,11.82
2023-05-16T06:11:14.110Z,11.77
2023-05-16T06:13:41.635Z,11.87
2023-05-16T06:16:10.489Z,11.93
2023-05-16T06:18:38.051Z,11.90
2023-05-16T06:21:06.284Z,11.91
2023-05-16T06:23:33.919Z,11.88
2023-05-16T06:26:01.523Z,11.89
2023-05-16T06:28:29.031Z,11.93
2023-05-16T06:30:56.672Z,11.94
2023-05-16T06:33:25.690Z,11.92
2023-05-16T06:35:53.351Z,11.94
2023-05-16T06:38:20.872Z,12.03
2023-05-16T06:40:48.340Z,12.01
2023-05-16T06:43:16.109Z,12.03
2023-05-16T06:45:43.643Z,12.01
2023-05-16T06:48:11.260Z,12.08
2023-05-16T06:50:40.220Z,12.04
2023-05-16T06:53:07.745Z,11.94
2023-05-16T06:55:35.358Z,11.91
2023-05-16T06:58:02.960Z,11.88
2023-05-16T07:00:30.542Z,11.85
2023-05-16T07:02:58.149Z,11.93
2023-05-16T07:05:25.834Z,11.97
2023-05-16T07:07:54.823Z,11.92
2023-05-16T07:10:22.791Z,11.95
2023-05-16T07:12:50.358Z,11.96
2023-05-16T07:15:18.084Z,11.96
2023-05-16T07:17:45.918Z,11.96
2023-05-16T07:20:14.794Z,12.09
2023-05-16T07:22:42.340Z,12.10
2023-05-16T07:25:12.854Z,12.11
2023-05-16T07:27:41.642Z,12.12
2023-05-16T07:30:10.857Z,12.11
2023-05-16T07:32:38.452Z,11.95
2023-05-16T07:35:06.601Z,11.95
2023-05-16T07:37:34.309Z,11.74
2023-05-16T07:40:01.963Z,11.68
2023-05-16T07:42:31.854Z,11.66
2023-05-16T07:44:59.426Z,11.60
2023-05-16T07:47:27.088Z,11.48
2023-05-16T07:49:54.754Z,11.57
2023-05-16T07:52:22.329Z,11.60
2023-05-16T07:54:49.845Z,11.56
2023-05-16T07:57:17.783Z,11.46
2023-05-16T07:59:46.926Z,11.48
2023-05-16T08:02:14.739Z,11.43
2023-05-16T08:04:42.290Z,11.38
2023-05-16T08:07:10.277Z,11.33
2023-05-16T08:09:37.819Z,11.27
2023-05-16T08:12:05.847Z,11.33
2023-05-16T08:14:33.453Z,11.43
2023-05-16T08:17:02.314Z,11.39
2023-05-16T08:19:30.416Z,11.40
2023-05-16T08:21:58.002Z,11.27
2023-05-16T08:24:25.798Z,11.18
2023-05-16T08:26:53.368Z,11.25
2023-05-16T08:29:21.033Z,11.33
2023-05-16T08:31:48.961Z,11.40
2023-05-16T08:34:17.887Z,11.34
2023-05-16T08:36:45.443Z,11.39
2023-05-16T08:39:13.013Z,11.35
2023-05-16T08:41:40.690Z,11.30
2023-05-16T08:44:08.346Z,11.28
2023-05-16T08:46:36.683Z,11.38
2023-05-16T08:49:07.868Z,11.31
2023-05-16T08:51:38.187Z,11.36
2023-05-16T08:54:08.139Z,11.36
2023-05-16T08:56:36.237Z,11.34
2023-05-16T08:59:03.900Z,11.13
2023-05-16T09:01:32.242Z,11.23
2023-05-16T09:04:00.472Z,11.23
2023-05-16T09:06:28.104Z,11.26
2023-05-16T09:08:57.311Z,11.33
2023-05-16T09:11:24.940Z,11.30
2023-05-16T09:13:52.510Z,11.34
2023-05-16T09:16:21.275Z,11.35
2023-05-16T09:18:57.124Z,11.40
2023-05-16T09:21:28.656Z,11.34
2023-05-16T09:23:57.994Z,11.27
2023-05-16T09:26:26.238Z,11.32
2023-05-16T09:28:54.924Z,11.32
2023-05-16T09:31:24.945Z,11.19
2023-05-16T09:33:52.696Z,11.14
2023-05-16T09:36:20.457Z,11.13
2023-05-16T09:38:48.020Z,11.11
2023-05-16T09:41:16.896Z,11.12
2023-05-16T09:43:45.274Z,11.17
2023-05-16T09:46:15.075Z,11.12
2023-05-16T09:48:44.025Z,11.02
2023-05-16T09:51:13.049Z,11.07
2023-05-16T09:53:41.870Z,10.98
2023-05-16T09:56:12.210Z,11.05
2023-05-16T09:58:42.585Z,11.14
2023-05-16T10:01:11.265Z,11.12
2023-05-16T10:03:40.990Z,11.20
2023-05-16T10:06:09.223Z,11.22
2023-05-16T10:08:38.127Z,11.32
2023-05-16T10:11:06.812Z,11.43
2023-05-16T10:13:36.314Z,11.45
2023-05-16T10:16:09.039Z,11.47
2023-05-16T10:18:37.151Z,11.55
2023-05-16T10:21:08.326Z,11.58
2023-05-16T10:23:39.306Z,11.73
2023-05-16T10:26:07.279Z,11.84
2023-05-16T10:28:36.791Z,11.84
2023-05-16T10:31:06.967Z,11.90
2023-05-16T10:33:35.026Z,11.82
2023-05-16T10:36:03.742Z,11.88
2023-05-16T10:38:31.582Z,11.91
2023-05-16T10:40:59.487Z,12.02
2023-05-16T10:43:27.832Z,12.12
2023-05-16T10:45:56.308Z,12.14
2023-05-16T10:48:31.991Z,12.18
2023-05-16T10:50:59.581Z,12.20
2023-05-16T10:53:32.245Z,12.24
2023-05-16T10:56:08.951Z,12.26
2023-05-16T10:58:48.637Z,11.97
2023-05-16T11:01:20.766Z,11.94
2023-05-16T11:04:10.102Z,12.15
2023-05-16T11:06:46.039Z,12.33
2023-05-16T11:09:27.194Z,12.38
2023-05-16T11:11:59.902Z,12.39
2023-05-16T11:14:29.739Z,12.30
2023-05-16T11:17:02.371Z,12.26
2023-05-16T11:19:33.431Z,12.28
2023-05-16T11:22:15.088Z,12.24
2023-05-16T11:24:51.485Z,12.28
2023-05-16T11:27:23.936Z,12.24
2023-05-16T11:29:52.362Z,12.19
2023-05-16T11:32:21.782Z,12.17
2023-05-16T11:34:51.850Z,12.10
2023-05-16T11:37:20.994Z,12.02
2023-05-16T11:39:48.763Z,12.03
2023-05-16T11:42:16.514Z,12.04
2023-05-16T11:44:44.111Z,12.02
2023-05-16T11:47:12.426Z,11.96
2023-05-16T11:49:41.403Z,12.03
2023-05-16T11:52:10.743Z,12.10
2023-05-16T11:54:38.694Z,12.03
2023-05-16T11:57:06.794Z,12.13
2023-05-16T11:59:34.482Z,12.21
2023-05-16T12:02:05.534Z,12.29
2023-05-16T12:04:33.208Z,12.40
2023-05-16T12:07:02.449Z,12.44
2023-05-16T12:09:31.408Z,12.42
2023-05-16T12:11:58.963Z,12.57
2023-05-16T12:14:27.043Z,12.73
2023-05-16T12:16:54.928Z,12.75
2023-05-16T12:19:23.135Z,12.62
2023-05-16T12:21:54.233Z,12.57
2023-05-16T12:24:22.141Z,12.57
2023-05-16T12:26:54.469Z,12.52
2023-05-16T12:29:25.162Z,12.60
2023-05-16T12:31:54.297Z,12.54
2023-05-16T12:34:23.217Z,12.49
2023-05-16T12:36:54.447Z,12.44
2023-05-16T12:39:22.916Z,12.46
2023-05-16T12:41:51.783Z,12.45
2023-05-16T12:44:20.429Z,12.48
2023-05-16T12:46:49.646Z,12.46
2023-05-16T12:49:17.355Z,12.20
2023-05-16T12:51:50.274Z,12.34
2023-05-16T12:54:18.314Z,12.26
2023-05-16T12:56:46.038Z,12.32
2023-05-16T12:59:15.097Z,12.38
2023-05-16T13:01:44.369Z,12.39
2023-05-16T13:04:16.643Z,12.25
2023-05-16T13:06:56.497Z,12.30
2023-05-16T13:09:28.919Z,12.22
2023-05-16T13:11:58.752Z,12.23
2023-05-16T13:14:27.898Z,12.22
2023-05-16T13:16:55.418Z,12.11
2023-05-16T13:19:24.183Z,12.09
2023-05-16T13:21:51.903Z,12.05
2023-05-16T13:24:19.452Z,12.06
2023-05-16T13:26:47.018Z,12.15
2023-05-16T13:29:14.910Z,12.21
2023-05-16T13:31:44.796Z,12.25
2023-05-16T13:34:12.370Z,12.04
2023-05-16T13:36:53.085Z,12.04
2023-05-16T13:39:21.930Z,12.11
2023-05-16T13:41:49.496Z,12.12
2023-05-16T13:44:17.356Z,12.08
2023-05-16T13:46:46.321Z,11.93
2023-05-16T13:49:13.852Z,11.96
2023-05-16T13:51:41.390Z,11.90
2023-05-16T13:54:10.156Z,11.77
2023-05-16T13:56:38.207Z,11.66
2023-05-16T13:59:07.144Z,11.69
2023-05-16T14:01:36.491Z,11.67
2023-05-16T14:04:06.192Z,11.50
2023-05-16T14:06:34.061Z,11.54
2023-05-16T14:09:03.679Z,11.61
2023-05-16T14:11:31.640Z,11.67
2023-05-16T14:13:59.563Z,11.38
2023-05-16T14:16:27.502Z,11.58
2023-05-16T14:18:55.402Z,11.70
2023-05-16T14:21:24.361Z,11.75
2023-05-16T14:23:51.907Z,11.77
2023-05-16T14:26:22.560Z,11.76
2023-05-16T14:28:51.003Z,11.72
2023-05-16T14:31:18.743Z,11.62
2023-05-16T14:33:46.323Z,11.53
2023-05-16T14:36:14.323Z,11.58
2023-05-16T14:38:43.184Z,11.53
2023-05-16T14:41:10.850Z,11.52
2023-05-16T14:43:39.149Z,11.39
2023-05-16T14:46:06.770Z,11.38
2023-05-16T14:48:34.592Z,11.38
2023-05-16T14:51:02.128Z,11.23
2023-05-16T14:53:29.709Z,11.17
2023-05-16T14:55:58.535Z,11.09
2023-05-16T14:58:26.992Z,11.08
2023-05-16T15:00:54.518Z,11.08
2023-05-16T15:03:22.104Z,11.15
2023-05-16T15:05:49.695Z,11.13
2023-05-16T15:08:17.237Z,11.11
2023-05-16T15:10:44.763Z,11.04
2023-05-16T15:13:13.690Z,11.12
2023-05-16T15:15:42.141Z,11.19
2023-05-16T15:18:11.163Z,11.19
2023-05-16T15:20:38.908Z,11.23
2023-05-16T15:23:06.535Z,11.31
2023-05-16T15:25:34.518Z,11.35
2023-05-16T15:28:02.157Z,11.23
2023-05-16T15:30:34.044Z,11.27
2023-05-16T15:33:01.610Z,11.32
2023-05-16T15:35:29.546Z,11.33
2023-05-16T15:37:59.665Z,11.35
2023-05-16T15:40:27.592Z,11.32
2023-05-16T15:42:55.361Z,11.24
2023-05-16T15:45:22.940Z,11.22
2023-05-16T15:47:51.911Z,11.29
2023-05-16T15:50:19.535Z,11.32
2023-05-16T15:52:47.271Z,11.24
2023-05-16T15:55:15.207Z,11.26
2023-05-16T15:57:43.963Z,11.25
2023-05-16T16:00:12.889Z,11.33
2023-05-16T16:02:44.758Z,11.33
2023-05-16T16:05:14.355Z,11.37
2023-05-16T16:07:42.116Z,11.45
2023-05-16T16:10:10.706Z,11.49
2023-05-16T16:12:38.267Z,11.49
2023-05-16T16:15:07.397Z,11.46
2023-05-16T16:17:35.288Z,11.49
2023-05-16T16:20:02.936Z,11.45
2023-05-16T16:22:31.793Z,11.48
2023-05-16T16:25:00.458Z,11.48
2023-05-16T16:27:28.093Z,11.38
2023-05-16T16:29:55.663Z,11.42
2023-05-16T16:32:23.373Z,11.45
2023-05-16T16:34:51.019Z,11.51
2023-05-16T16:37:18.561Z,11.47
2023-05-16T16:39:47.537Z,11.43
2023-05-16T16:42:15.090Z,11.52
2023-05-16T16:44:42.651Z,11.62
2023-05-16T16:47:10.421Z,11.71
2023-05-16T16:49:37.996Z,11.74
2023-05-16T16:52:06.036Z,11.79
2023-05-16T16:54:33.577Z,11.81
2023-05-16T16:57:02.412Z,11.77
2023-05-16T16:59:30.113Z,11.77
2023-05-16T17:01:57.733Z,11.67
2023-05-16T17:04:25.283Z,11.59
2023-05-16T17:06:52.845Z,11.64
2023-05-16T17:09:21.343Z,11.67
2023-05-16T17:11:48.966Z,11.70
2023-05-16T17:14:17.838Z,11.70
2023-05-16T17:16:45.560Z,11.70
2023-05-16T17:19:13.189Z,11.76
2023-05-16T17:21:41.419Z,11.86
2023-05-16T17:24:09.634Z,11.89
2023-05-16T17:26:37.316Z,11.88
2023-05-16T17:29:05.940Z,11.87
2023-05-16T17:31:35.018Z,11.95
2023-05-16T17:34:02.563Z,11.98
2023-05-16T17:36:30.934Z,12.01
2023-05-16T17:38:58.670Z,12.03
2023-05-16T17:41:26.261Z,12.05
2023-05-16T17:43:53.871Z,12.04
2023-05-16T17:46:21.447Z,12.03
2023-05-16T17:48:50.398Z,12.00
2023-05-16T17:51:17.953Z,12.03
2023-05-16T17:53:45.517Z,12.01
2023-05-16T17:56:14.023Z,12.00
2023-05-16T17:58:41.795Z,12.00
2023-05-16T18:01:10.235Z,11.92
2023-05-16T18:03:38.531Z,11.87
2023-05-16T18:06:07.993Z,11.74
2023-05-16T18:08:35.796Z,11.74
2023-05-16T18:11:03.344Z,11.73
2023-05-16T18:13:31.145Z,11.73
2023-05-16T18:15:58.741Z,11.73
2023-05-16T18:18:27.227Z,11.65
2023-05-16T18:20:54.977Z,11.59
2023-05-16T18:23:24.751Z,11.57
2023-05-16T18:25:52.681Z,11.58
2023-05-16T18:28:21.454Z,11.59
2023-05-16T18:30:48.989Z,11.58
2023-05-16T18:33:16.795Z,11.57
2023-05-16T18:35:44.369Z,11.56
2023-05-16T18:38:20.323Z,11.55
2023-05-16T18:40:57.670Z,11.53
2023-05-16T18:43:25.219Z,11.53
2023-05-16T18:45:52.729Z,11.51
2023-05-16T18:48:20.624Z,11.47
2023-05-16T18:50:48.241Z,11.40
2023-05-16T18:53:15.787Z,11.35
2023-05-16T18:55:43.376Z,11.36
2023-05-16T18:58:12.440Z,11.28
2023-05-16T19:00:40.023Z,11.27
2023-05-16T19:03:09.876Z,11.23
2023-05-16T19:05:37.755Z,11.21
2023-05-16T19:08:07.799Z,11.16
2023-05-16T19:10:38.384Z,11.19
2023-05-16T19:13:08.057Z,11.17
2023-05-16T19:15:37.686Z,11.17
2023-05-16T19:18:06.431Z,11.06
2023-05-16T19:20:34.971Z,11.12
2023-05-16T19:23:03.254Z,11.10
2023-05-16T19:25:31.320Z,10.90
2023-05-16T19:27:59.109Z,10.80
2023-05-16T19:30:26.835Z,10.77
2023-05-16T19:32:56.043Z,10.87
2023-05-16T19:35:23.655Z,10.95
2023-05-16T19:37:51.224Z,10.78
2023-05-16T19:40:18.940Z,10.61
2023-05-16T19:42:47.578Z,10.40
2023-05-16T19:45:15.104Z,10.47
2023-05-16T19:47:42.973Z,10.43
2023-05-16T19:50:12.160Z,10.39
2023-05-16T19:52:40.865Z,10.40
2023-05-16T19:55:10.453Z,10.30
2023-05-16T19:57:38.064Z,10.19
2023-05-16T20:00:06.756Z,10.25
2023-05-16T20:02:40.426Z,10.22
2023-05-16T20:05:08.979Z,10.23
2023-05-16T20:07:39.572Z,10.28
2023-05-16T20:10:09.014Z,10.26
2023-05-16T20:12:36.607Z,10.19
2023-05-16T20:15:08.197Z,10.22
2023-05-16T20:17:35.812Z,10.18
2023-05-16T20:20:03.628Z,10.11
2023-05-16T20:22:31.214Z,9.94
2023-05-16T20:25:00.305Z,10.02
2023-05-16T20:27:29.224Z,9.94
2023-05-16T20:29:58.662Z,9.79
2023-05-16T20:32:26.192Z,9.70
2023-05-16T20:34:53.701Z,9.79
2023-05-16T20:37:23.317Z,9.86
2023-05-16T20:39:51.411Z,9.83
2023-05-16T20:42:20.352Z,9.89
2023-05-16T20:44:48.063Z,9.81
2023-05-16T20:47:16.771Z,9.52
2023-05-16T20:49:44.535Z,9.63
2023-05-16T20:52:12.145Z,9.78
2023-05-16T20:54:41.106Z,9.76
2023-05-16T20:57:08.877Z,9.75
2023-05-16T20:59:38.324Z,9.83
2023-05-16T21:02:09.650Z,9.74
2023-05-16T21:04:37.393Z,9.70
2023-05-16T21:07:07.494Z,9.67
2023-05-16T21:09:37.703Z,9.66
2023-05-16T21:12:06.034Z,9.66
2023-05-16T21:14:33.591Z,9.67
2023-05-16T21:17:02.522Z,9.68
2023-05-16T21:19:33.971Z,9.63
2023-05-16T21:22:03.884Z,9.59
2023-05-16T21:24:35.029Z,9.56
2023-05-16T21:27:03.144Z,9.54
2023-05-16T21:29:30.703Z,9.43
2023-05-16T21:31:58.619Z,9.44
2023-05-16T21:34:27.531Z,9.42
2023-05-16T21:36:55.083Z,9.41
2023-05-16T21:39:22.667Z,9.43
2023-05-16T21:41:50.214Z,9.41
2023-05-16T21:44:18.543Z,9.41
2023-05-16T21:46:46.124Z,9.40
2023-05-16T21:49:13.687Z,9.33
2023-05-16T21:51:42.537Z,9.29
2023-05-16T21:54:10.091Z,9.26
2023-05-16T21:56:37.694Z,9.23
2023-05-16T21:59:05.228Z,9.18
2023-05-16T22:01:32.775Z,9.14
2023-05-16T22:04:00.436Z,9.05
2023-05-16T22:06:28.051Z,9.02
2023-05-16T22:08:56.923Z,9.02
2023-05-16T22:11:24.491Z,8.98
2023-05-16T22:13:52.081Z,8.98
2023-05-16T22:16:19.624Z,8.99
2023-05-16T22:18:47.390Z,8.99
2023-05-16T22:21:16.200Z,9.01
2023-05-16T22:23:43.826Z,8.95
2023-05-16T22:26:12.786Z,8.76
2023-05-16T22:28:40.326Z,8.57
2023-05-16T22:31:07.871Z,8.68
2023-05-16T22:33:35.717Z,8.58
2023-05-16T22:36:03.990Z,8.67
2023-05-16T22:38:31.785Z,8.70
2023-05-16T22:40:59.446Z,8.73
2023-05-16T22:43:28.327Z,8.74
2023-05-16T22:45:56.063Z,8.71
2023-05-16T22:48:23.727Z,8.67
2023-05-16T22:50:51.259Z,8.66
2023-05-16T22:53:18.784Z,8.58
2023-05-16T22:55:46.306Z,8.58
2023-05-16T22:58:13.862Z,8.59
2023-05-16T23:00:42.711Z,8.53
2023-05-16T23:03:10.502Z,8.54
2023-05-16T23:05:38.140Z,8.51
2023-05-16T23:08:06.184Z,8.50
2023-05-16T23:10:33.702Z,8.44
2023-05-16T23:13:01.464Z,8.46
2023-05-16T23:15:29.150Z,8.41
2023-05-16T23:17:58.314Z,8.41
2023-05-16T23:20:25.962Z,8.34
2023-05-16T23:22:53.512Z,8.30
2023-05-16T23:25:21.182Z,8.31
2023-05-16T23:27:48.687Z,8.38
2023-05-16T23:30:16.506Z,8.37
2023-05-16T23:32:44.095Z,8.29
2023-05-16T23:35:12.985Z,8.30
2023-05-16T23:37:40.496Z,8.28
2023-05-16T23:40:10.098Z,8.30
2023-05-16T23:42:37.672Z,8.31
2023-05-16T23:45:06.207Z,8.29
2023-05-16T23:47:33.774Z,8.18
2023-05-16T23:50:01.626Z,8.16
2023-05-16T23:52:30.593Z,8.21
2023-05-16T23:54:58.143Z,8.18
2023-05-16T23:57:25.682Z,8.15
2023-05-16T23:59:53.234Z,8.13
